createdAt,value
2022-10-06T00:00:13.778Z,101185.19
2022-10-06T00:03:00.050Z,101190.59
2022-10-06T00:05:45.570Z,101181.13
2022-10-06T00:08:33.530Z,101207.66
2022-10-06T00:11:22.274Z,101199.81
2022-10-06T00:14:08.342Z,101213.50
2022-10-06T00:16:53.818Z,101248.16
2022-10-06T00:19:41.092Z,101267.88
2022-10-06T00:22:26.496Z,101274.41
2022-10-06T00:25:15.645Z,101311.31
2022-10-06T00:28:02.950Z,101306.00
2022-10-06T00:30:49.074Z,101320.66
2022-10-06T00:33:35.722Z,101324.91
2022-10-06T00:36:21.466Z,101329.91
2022-10-06T00:39:07.560Z,101340.88
2022-10-06T00:41:54.236Z,101351.25
2022-10-06T00:44:41.513Z,101351.69
2022-10-06T00:47:31.293Z,101349.81
2022-10-06T00:50:18.118Z,101367.91
2022-10-06T00:53:05.050Z,101370.91
2022-10-06T00:55:50.771Z,101365.88
2022-10-06T00:58:37.921Z,101361.97
2022-10-06T01:01:23.986Z,101354.75
2022-10-06T01:04:15.750Z,101370.25
2022-10-06T01:07:01.989Z,101380.06
2022-10-06T01:09:48.573Z,101370.75
2022-10-06T01:12:34.623Z,101376.66
2022-10-06T01:15:22.106Z,101375.44
2022-10-06T01:18:14.922Z,101355.50
2022-10-06T01:21:21.036Z,101383.16
2022-10-06T01:24:06.660Z,101381.63
2022-10-06T01:26:53.508Z,101373.25
2022-10-06T01:29:39.494Z,101393.53
2022-10-06T01:32:31.583Z,101398.13
2022-10-06T01:35:18.751Z,101394.56
2022-10-06T01:38:04.660Z,101425.91
2022-10-06T01:40:53.600Z,101429.84
2022-10-06T01:43:40.022Z,101436.66
2022-10-06T01:46:26.405Z,101437.88
2022-10-06T01:49:13.304Z,101455.59
2022-10-06T01:51:59.029Z,101458.66
2022-10-06T01:54:44.827Z,101441.88
2022-10-06T01:57:32.031Z,101446.72
2022-10-06T02:00:19.412Z,101436.50
2022-10-06T02:03:07.854Z,101443.75
2022-10-06T02:05:56.796Z,101448.69
2022-10-06T02:08:42.581Z,101459.69
2022-10-06T02:11:29.591Z,101470.06
2022-10-06T02:14:15.982Z,101480.97
2022-10-06T02:17:02.434Z,101471.75
2022-10-06T02:19:47.756Z,101486.03
2022-10-06T02:22:38.605Z,101496.78
2022-10-06T02:25:23.926Z,101504.28
2022-10-06T02:28:11.103Z,101486.69
2022-10-06T02:31:05.395Z,101496.34
2022-10-06T02:33:51.584Z,101509.94
2022-10-06T02:36:37.698Z,101523.72
2022-10-06T02:39:23.339Z,101526.72
2022-10-06T02:42:09.169Z,101523.75
2022-10-06T02:44:54.978Z,101550.50
2022-10-06T02:47:41.414Z,101558.13
2022-10-06T02:50:26.906Z,101554.31
2022-10-06T02:53:12.294Z,101561.59
2022-10-06T02:56:10.993Z,101570.16
2022-10-06T02:58:56.609Z,101571.13
2022-10-06T03:01:42.193Z,101577.25
2022-10-06T03:04:28.077Z,101584.72
2022-10-06T03:07:16.123Z,101598.72
2022-10-06T03:10:01.442Z,101606.22
2022-10-06T03:12:48.555Z,101596.25
2022-10-06T03:15:36.434Z,101615.47
2022-10-06T03:18:22.441Z,101606.69
2022-10-06T03:21:12.766Z,101599.78
2022-10-06T03:23:59.273Z,101643.97
2022-10-06T03:26:48.122Z,101615.59
2022-10-06T03:29:34.121Z,101633.00
2022-10-06T03:32:20.122Z,101640.34
2022-10-06T03:35:06.017Z,101638.00
2022-10-06T03:37:51.741Z,101645.41
2022-10-06T03:40:37.742Z,101654.81
2022-10-06T03:43:23.595Z,101651.09
2022-10-06T03:46:12.703Z,101673.75
2022-10-06T03:49:00.799Z,101657.94
2022-10-06T03:51:46.369Z,101677.31
2022-10-06T03:54:31.999Z,101677.41
2022-10-06T03:57:17.595Z,101676.25
2022-10-06T04:00:04.114Z,101681.03
2022-10-06T04:02:51.281Z,101702.06
2022-10-06T04:05:37.477Z,101694.94
2022-10-06T04:08:24.567Z,101704.19
2022-10-06T04:11:14.355Z,101720.75
2022-10-06T04:14:02.723Z,101732.25
2022-10-06T04:16:50.346Z,101718.16
2022-10-06T04:19:36.485Z,101719.88
2022-10-06T04:22:22.378Z,101729.88
2022-10-06T04:25:09.002Z,101721.56
2022-10-06T04:27:54.667Z,101734.69
2022-10-06T04:30:40.562Z,101725.22
2022-10-06T04:33:26.485Z,101729.00
2022-10-06T04:36:24.022Z,101743.44
2022-10-06T04:39:11.617Z,101747.72
2022-10-06T04:41:57.598Z,101761.41
2022-10-06T04:44:43.495Z,101756.28
2022-10-06T04:47:29.076Z,101762.22
2022-10-06T04:50:14.662Z,101762.88
2022-10-06T04:53:00.703Z,101769.91
2022-10-06T04:55:46.508Z,101778.22
2022-10-06T04:58:34.251Z,101786.84
2022-10-06T05:01:25.697Z,101802.91
2022-10-06T05:04:11.084Z,101792.06
2022-10-06T05:06:56.568Z,101814.13
2022-10-06T05:09:42.441Z,101805.38
2022-10-06T05:12:31.757Z,101817.13
2022-10-06T05:15:17.981Z,101843.06
2022-10-06T05:18:03.638Z,101827.25
2022-10-06T05:21:06.846Z,101848.94
2022-10-06T05:23:52.361Z,101853.88
2022-10-06T05:26:38.032Z,101851.97
2022-10-06T05:29:23.382Z,101858.44
2022-10-06T05:32:10.200Z,101869.16
2022-10-06T05:34:56.199Z,101878.78
2022-10-06T05:37:49.418Z,101879.31
2022-10-06T05:40:35.869Z,101892.97
2022-10-06T05:43:21.532Z,101886.91
2022-10-06T05:46:21.659Z,101894.94
2022-10-06T05:49:10.161Z,101912.06
2022-10-06T05:51:56.531Z,101904.66
2022-10-06T05:54:42.115Z,101917.91
2022-10-06T05:57:28.016Z,101911.47
2022-10-06T06:00:14.107Z,101927.97
2022-10-06T06:03:00.261Z,101938.56
2022-10-06T06:05:45.817Z,101936.28
2022-10-06T06:08:31.741Z,101943.88
2022-10-06T06:11:20.100Z,101958.22
2022-10-06T06:14:09.824Z,101965.41
2022-10-06T06:16:55.768Z,101969.50
2022-10-06T06:19:41.552Z,101976.13
2022-10-06T06:22:26.994Z,101985.69
2022-10-06T06:25:12.969Z,101982.25
2022-10-06T06:27:58.588Z,101999.72
2022-10-06T06:30:44.369Z,102000.31
2022-10-06T06:33:32.134Z,102008.34
2022-10-06T06:36:22.643Z,102017.72
2022-10-06T06:39:10.613Z,102013.50
2022-10-06T06:41:56.100Z,102017.91
2022-10-06T06:44:42.063Z,102024.94
2022-10-06T06:47:27.431Z,102041.50
2022-10-06T06:50:17.204Z,102046.69
2022-10-06T06:53:02.645Z,102049.75
2022-10-06T06:55:52.309Z,102046.91
2022-10-06T06:58:37.963Z,102039.38
2022-10-06T07:01:24.043Z,102046.34
2022-10-06T07:04:10.804Z,102059.41
2022-10-06T07:06:59.147Z,102050.13
2022-10-06T07:09:44.967Z,102068.44
2022-10-06T07:12:30.789Z,102077.34
2022-10-06T07:15:35.028Z,102068.88
2022-10-06T07:18:38.963Z,102089.13
2022-10-06T07:21:43.626Z,102093.47
2022-10-06T07:24:47.574Z,102082.78
2022-10-06T07:27:41.011Z,102095.38
2022-10-06T07:30:29.217Z,102103.56
2022-10-06T07:33:15.708Z,102096.31
2022-10-06T07:36:03.161Z,102111.69
2022-10-06T07:38:49.109Z,102115.38
2022-10-06T07:41:35.572Z,102119.50
2022-10-06T07:44:22.802Z,102122.50
2022-10-06T07:47:08.734Z,102139.31
2022-10-06T07:49:57.932Z,102145.38
2022-10-06T07:52:43.710Z,102140.34
2022-10-06T07:55:30.612Z,102141.75
2022-10-06T07:58:22.392Z,102147.00
2022-10-06T08:01:10.377Z,102150.63
2022-10-06T08:03:57.561Z,102161.72
2022-10-06T08:06:44.861Z,102165.94
2022-10-06T08:09:30.903Z,102170.63
2022-10-06T08:12:35.105Z,102163.38
2022-10-06T08:15:21.140Z,102184.97
2022-10-06T08:18:21.320Z,102185.66
2022-10-06T08:21:19.339Z,102192.34
2022-10-06T08:24:05.448Z,102190.94
2022-10-06T08:26:53.646Z,102204.22
2022-10-06T08:29:40.041Z,102205.66
2022-10-06T08:35:12.309Z,102214.25
2022-10-06T08:37:59.182Z,102213.72
2022-10-06T08:40:47.128Z,102203.75
2022-10-06T08:43:35.229Z,102215.84
2022-10-06T08:46:25.017Z,102225.34
2022-10-06T08:49:19.856Z,102235.16
2022-10-06T08:52:22.748Z,102225.13
2022-10-06T08:55:38.634Z,102221.25
2022-10-06T08:58:58.549Z,102235.28
2022-10-06T09:01:50.501Z,102225.13
2022-10-06T09:04:38.019Z,102230.63
2022-10-06T09:07:39.021Z,102239.94
2022-10-06T09:11:00.123Z,102244.69
2022-10-06T09:13:59.994Z,102236.47
2022-10-06T09:16:53.694Z,102256.19
2022-10-06T09:19:59.622Z,102240.50
2022-10-06T09:22:50.228Z,102241.97
2022-10-06T09:25:38.381Z,102252.31
2022-10-06T09:28:25.593Z,102242.59
2022-10-06T09:31:24.348Z,102248.97
2022-10-06T09:34:31.212Z,102265.06
2022-10-06T09:37:18.608Z,102254.97
2022-10-06T09:40:49.208Z,102266.06
2022-10-06T09:43:35.105Z,102272.31
2022-10-06T09:46:32.031Z,102273.56
2022-10-06T09:49:20.383Z,102277.25
2022-10-06T09:52:15.176Z,102293.34
2022-10-06T09:55:19.826Z,102283.75
2022-10-06T09:58:20.518Z,102285.78
2022-10-06T10:01:08.505Z,102286.41
2022-10-06T10:04:20.042Z,102291.13
2022-10-06T10:07:25.344Z,102300.09
2022-10-06T10:10:24.248Z,102313.81
2022-10-06T10:13:25.078Z,102321.22
2022-10-06T10:16:17.175Z,102323.28
2022-10-06T10:19:06.031Z,102301.22
2022-10-06T10:21:56.420Z,102294.94
2022-10-06T10:25:04.597Z,102306.31
2022-10-06T10:28:14.365Z,102317.03
2022-10-06T10:31:18.611Z,102312.38
2022-10-06T10:34:24.462Z,102310.00
2022-10-06T10:37:35.995Z,102304.47
2022-10-06T10:40:32.767Z,102309.19
2022-10-06T10:43:23.175Z,102315.47
2022-10-06T10:46:23.112Z,102322.09
2022-10-06T10:49:33.948Z,102336.50
2022-10-06T10:52:23.295Z,102342.34
2022-10-06T10:55:23.758Z,102346.88
2022-10-06T10:58:24.007Z,102327.41
2022-10-06T11:01:17.636Z,102338.53
2022-10-06T11:04:10.500Z,102324.94
2022-10-06T11:07:12.033Z,102338.56
2022-10-06T11:10:38.977Z,102329.88
2022-10-06T11:13:48.832Z,102325.28
2022-10-06T11:16:51.151Z,102322.09
2022-10-06T11:19:46.029Z,102329.16
2022-10-06T11:22:41.636Z,102334.97
2022-10-06T11:25:40.846Z,102331.81
2022-10-06T11:28:54.630Z,102340.69
2022-10-06T11:32:01.959Z,102340.59
2022-10-06T11:34:52.581Z,102339.22
2022-10-06T11:37:47.550Z,102343.94
2022-10-06T11:40:59.351Z,102356.16
2022-10-06T11:43:49.659Z,102345.84
2022-10-06T11:46:45.083Z,102349.25
2022-10-06T11:49:32.630Z,102361.75
2022-10-06T11:52:19.911Z,102354.13
2022-10-06T11:55:18.888Z,102351.44
2022-10-06T11:58:40.697Z,102354.81
2022-10-06T12:01:32.543Z,102356.13
2022-10-06T12:04:24.130Z,102344.91
2022-10-06T12:07:11.674Z,102336.88
2022-10-06T12:10:44.353Z,102346.13
2022-10-06T12:17:05.611Z,102340.06
2022-10-06T12:20:12.353Z,102347.56
2022-10-06T12:23:13.998Z,102350.25
2022-10-06T12:26:10.438Z,102351.13
2022-10-06T12:29:20.821Z,102353.75
2022-10-06T12:32:28.648Z,102355.09
2022-10-06T12:35:39.839Z,102355.81
2022-10-06T12:38:31.917Z,102349.97
2022-10-06T12:42:16.609Z,102359.47
2022-10-06T12:45:16.130Z,102346.53
2022-10-06T12:48:06.261Z,102338.50
2022-10-06T12:51:02.866Z,102334.00
2022-10-06T12:54:05.945Z,102345.38
2022-10-06T12:56:59.025Z,102356.13
2022-10-06T12:59:45.776Z,102353.28
2022-10-06T13:02:32.558Z,102327.81
2022-10-06T13:05:18.429Z,102352.94
2022-10-06T13:08:07.548Z,102354.06
2022-10-06T13:11:13.467Z,102350.69
2022-10-06T13:14:14.400Z,102347.28
2022-10-06T13:17:03.339Z,102344.84
2022-10-06T13:19:49.058Z,102342.44
2022-10-06T13:22:36.776Z,102348.34
2022-10-06T13:25:22.281Z,102347.72
2022-10-06T13:28:26.675Z,102356.72
2022-10-06T13:31:15.730Z,102351.28
2022-10-06T13:34:12.344Z,102347.16
2022-10-06T13:37:00.768Z,102360.69
2022-10-06T13:39:46.687Z,102347.22
2022-10-06T13:42:33.416Z,102357.69
2022-10-06T13:45:19.117Z,102365.38
2022-10-06T13:48:09.277Z,102359.41
2022-10-06T13:50:56.130Z,102345.53
2022-10-06T13:53:48.124Z,102350.06
2022-10-06T13:56:41.436Z,102353.31
2022-10-06T13:59:37.105Z,102369.03
2022-10-06T14:02:25.515Z,102370.44
2022-10-06T14:05:30.388Z,102370.50
2022-10-06T14:08:23.691Z,102366.16
2022-10-06T14:11:10.709Z,102351.41
2022-10-06T14:14:03.199Z,102354.59
2022-10-06T14:16:52.272Z,102374.66
2022-10-06T14:19:40.729Z,102367.09
2022-10-06T14:22:36.041Z,102359.94
2022-10-06T14:25:23.037Z,102348.69
2022-10-06T14:28:10.958Z,102373.94
2022-10-06T14:30:58.709Z,102364.97
2022-10-06T14:33:47.570Z,102366.81
2022-10-06T14:36:36.931Z,102358.84
2022-10-06T14:39:22.459Z,102366.06
2022-10-06T14:42:08.984Z,102369.03
2022-10-06T14:44:55.450Z,102354.16
2022-10-06T14:47:42.366Z,102353.78
2022-10-06T14:50:30.238Z,102359.88
2022-10-06T14:53:18.183Z,102354.50
2022-10-06T14:56:11.064Z,102348.22
2022-10-06T14:59:00.919Z,102354.75
2022-10-06T15:01:49.836Z,102362.53
2022-10-06T15:04:35.285Z,102361.28
2022-10-06T15:07:39.478Z,102368.59
2022-10-06T15:10:25.494Z,102341.22
2022-10-06T15:13:11.144Z,102376.50
2022-10-06T15:15:58.512Z,102375.59
2022-10-06T15:18:45.505Z,102375.34
2022-10-06T15:21:32.188Z,102388.88
2022-10-06T15:24:19.086Z,102376.16
2022-10-06T15:27:25.067Z,102383.31
2022-10-06T15:30:12.092Z,102375.50
2022-10-06T15:32:57.607Z,102383.31
2022-10-06T15:36:01.001Z,102399.06
2022-10-06T15:38:47.284Z,102406.22
2022-10-06T15:41:36.719Z,102396.56
2022-10-06T15:44:24.553Z,102388.69
2022-10-06T15:47:11.304Z,102398.06
2022-10-06T15:49:57.663Z,102401.75
2022-10-06T15:52:43.024Z,102411.66
2022-10-06T15:55:28.764Z,102419.69
2022-10-06T15:58:16.094Z,102406.50
2022-10-06T16:01:04.013Z,102428.44
2022-10-06T16:03:50.763Z,102420.31
2022-10-06T16:06:55.473Z,102413.88
2022-10-06T16:09:46.623Z,102419.97
2022-10-06T16:12:34.263Z,102413.59
2022-10-06T16:15:20.536Z,102431.19
2022-10-06T16:18:07.026Z,102420.63
2022-10-06T16:20:54.130Z,102406.78
2022-10-06T16:23:41.201Z,102427.09
2022-10-06T16:26:28.023Z,102417.72
2022-10-06T16:29:17.116Z,102427.00
2022-10-06T16:32:02.546Z,102426.53
2022-10-06T16:34:50.539Z,102432.63
2022-10-06T16:37:35.895Z,102430.38
2022-10-06T16:40:23.068Z,102438.69
2022-10-06T16:43:08.527Z,102440.03
2022-10-06T16:46:02.099Z,102445.56
2022-10-06T16:48:50.023Z,102450.34
2022-10-06T16:51:38.183Z,102442.78
2022-10-06T16:54:23.807Z,102458.78
2022-10-06T16:57:10.224Z,102465.75
2022-10-06T16:59:55.594Z,102456.94
2022-10-06T17:02:41.794Z,102455.84
2022-10-06T17:05:28.959Z,102452.03
2022-10-06T17:08:14.249Z,102460.63
2022-10-06T17:11:05.601Z,102468.97
2022-10-06T17:13:59.555Z,102471.69
2022-10-06T17:16:47.848Z,102473.59
2022-10-06T17:19:33.498Z,102479.69
2022-10-06T17:22:20.340Z,102450.16
2022-10-06T17:25:07.314Z,102480.00
2022-10-06T17:27:52.825Z,102451.06
2022-10-06T17:30:40.147Z,102483.09
2022-10-06T17:33:28.455Z,102472.56
2022-10-06T17:36:18.039Z,102484.94
2022-10-06T17:39:06.869Z,102493.19
2022-10-06T17:41:53.596Z,102480.03
2022-10-06T17:44:39.990Z,102484.50
2022-10-06T17:47:26.430Z,102462.25
2022-10-06T17:50:13.507Z,102481.78
2022-10-06T17:53:02.011Z,102480.22
2022-10-06T17:55:47.909Z,102480.78
2022-10-06T17:58:36.527Z,102491.81
2022-10-06T18:01:27.225Z,102484.16
2022-10-06T18:04:18.977Z,102499.66
2022-10-06T18:07:07.144Z,102501.63
2022-10-06T18:10:13.083Z,102493.97
2022-10-06T18:13:00.774Z,102498.50
2022-10-06T18:15:48.689Z,102490.22
2022-10-06T18:18:34.161Z,102501.53
2022-10-06T18:21:23.516Z,102494.63
2022-10-06T18:24:24.449Z,102499.16
2022-10-06T18:27:11.222Z,102509.41
2022-10-06T18:30:01.127Z,102503.13
2022-10-06T18:36:15.039Z,102499.31
2022-10-06T18:39:01.962Z,102506.63
2022-10-06T18:41:50.887Z,102504.16
2022-10-06T18:44:56.538Z,102511.16
2022-10-06T18:48:01.158Z,102496.97
2022-10-06T18:50:59.971Z,102504.75
2022-10-06T18:53:46.345Z,102505.94
2022-10-06T18:56:34.455Z,102507.44
2022-10-06T18:59:32.218Z,102516.53
2022-10-06T19:02:19.291Z,102513.84
2022-10-06T19:05:06.122Z,102512.69
2022-10-06T19:07:54.413Z,102520.44
2022-10-06T19:11:00.816Z,102525.09
2022-10-06T19:13:53.795Z,102525.28
2022-10-06T19:16:42.761Z,102526.38
2022-10-06T19:19:30.604Z,102528.13
2022-10-06T19:22:18.050Z,102528.63
2022-10-06T19:25:03.983Z,102533.84
2022-10-06T19:27:51.367Z,102531.84
2022-10-06T19:30:36.750Z,102526.84
2022-10-06T19:33:24.219Z,102523.41
2022-10-06T19:36:09.804Z,102526.69
2022-10-06T19:38:57.419Z,102525.22
2022-10-06T19:42:02.278Z,102540.94
2022-10-06T19:44:48.040Z,102529.91
2022-10-06T19:47:33.632Z,102528.16
2022-10-06T19:50:19.700Z,102517.84
2022-10-06T19:53:06.565Z,102532.59
2022-10-06T19:56:01.512Z,102535.22
2022-10-06T19:58:50.387Z,102536.03
2022-10-06T20:01:36.147Z,102531.78
2022-10-06T20:04:25.287Z,102528.44
2022-10-06T20:07:12.559Z,102521.59
2022-10-06T20:09:58.130Z,102523.38
2022-10-06T20:12:44.957Z,102536.25
2022-10-06T20:15:32.319Z,102526.28
2022-10-06T20:18:17.570Z,102519.41
2022-10-06T20:21:03.702Z,102529.91
2022-10-06T20:23:49.841Z,102536.56
2022-10-06T20:26:38.918Z,102514.16
2022-10-06T20:29:26.404Z,102522.03
2022-10-06T20:32:12.031Z,102523.31
2022-10-06T20:34:58.113Z,102530.34
2022-10-06T20:37:45.516Z,102536.28
2022-10-06T20:40:42.689Z,102499.81
2022-10-06T20:43:30.169Z,102530.84
2022-10-06T20:46:15.966Z,102518.72
2022-10-06T20:49:04.224Z,102525.75
2022-10-06T20:51:51.906Z,102533.81
2022-10-06T20:54:37.686Z,102530.31
2022-10-06T20:57:23.437Z,102520.69
2022-10-06T21:00:10.427Z,102531.19
2022-10-06T21:02:56.886Z,102529.72
2022-10-06T21:05:49.025Z,102530.66
2022-10-06T21:08:34.661Z,102523.78
2022-10-06T21:11:23.716Z,102523.00
2022-10-06T21:14:11.639Z,102531.72
2022-10-06T21:16:57.164Z,102508.22
2022-10-06T21:19:44.433Z,102518.84
2022-10-06T21:22:31.540Z,102524.19
2022-10-06T21:25:17.295Z,102529.31
2022-10-06T21:28:04.065Z,102546.00
2022-10-06T21:30:50.465Z,102537.38
2022-10-06T21:33:41.056Z,102535.50
2022-10-06T21:36:28.221Z,102533.03
2022-10-06T21:39:14.237Z,102528.84
2022-10-06T21:42:02.671Z,102523.53
2022-10-06T21:44:48.426Z,102528.06
2022-10-06T21:47:34.871Z,102512.34
2022-10-06T21:50:20.645Z,102521.88
2022-10-06T21:53:06.381Z,102528.63
2022-10-06T21:55:53.719Z,102517.44
2022-10-06T21:58:39.212Z,102515.84
2022-10-06T22:01:31.362Z,102517.69
2022-10-06T22:04:17.522Z,102522.34
2022-10-06T22:07:03.487Z,102525.75
2022-10-06T22:09:48.902Z,102511.00
2022-10-06T22:12:35.423Z,102523.97
2022-10-06T22:15:22.108Z,102512.69
2022-10-06T22:18:07.659Z,102519.47
2022-10-06T22:20:53.375Z,102502.31
2022-10-06T22:23:41.109Z,102508.41
2022-10-06T22:26:30.081Z,102520.50
2022-10-06T22:29:17.630Z,102516.84
2022-10-06T22:32:03.502Z,102530.16
2022-10-06T22:34:49.179Z,102522.31
2022-10-06T22:37:35.114Z,102519.66
2022-10-06T22:40:20.841Z,102515.28
2022-10-06T22:43:06.430Z,102520.34
2022-10-06T22:45:52.136Z,102511.56
2022-10-06T22:48:38.586Z,102512.66
2022-10-06T22:51:24.990Z,102497.09
2022-10-06T22:54:16.999Z,102518.06
2022-10-06T22:57:02.551Z,102504.38
2022-10-06T22:59:48.565Z,102506.78
2022-10-06T23:02:34.425Z,102500.84
2022-10-06T23:05:20.365Z,102480.78
2022-10-06T23:08:07.446Z,102494.75
2022-10-06T23:10:53.778Z,102480.84
2022-10-06T23:13:40.538Z,102490.50
2022-10-06T23:16:26.040Z,102500.00
2022-10-06T23:19:12.113Z,102481.91
2022-10-06T23:21:57.715Z,102475.97
2022-10-06T23:24:43.442Z,102495.03
2022-10-06T23:27:29.525Z,102486.31
2022-10-06T23:30:15.452Z,102482.94
2022-10-06T23:33:00.980Z,102483.78
2022-10-06T23:35:56.321Z,102480.19
2022-10-06T23:38:45.436Z,102460.25
2022-10-06T23:41:31.525Z,102479.34
2022-10-06T23:44:17.134Z,102483.81
2022-10-06T23:47:02.956Z,102463.97
2022-10-06T23:49:48.522Z,102476.06
2022-10-06T23:52:34.740Z,102482.09
2022-10-06T23:55:20.883Z,102457.88
2022-10-06T23:58:06.564Z,102470.91
